sensor_id;sensor_type;location;lat;lon;timestamp;P1;durP1;ratioP1;P2;durP2;ratioP2
14933;SDS011;7560;51.364;12.384;2023-04-24T00:02:49;2.83;;;1.55;;
14933;SDS011;7560;51.364;12.384;2023-04-24T00:07:52;3.00;;;1.95;;
14933;SDS011;7560;51.364;12.384;2023-04-24T00:12:53;2.42;;;1.80;;
14933;SDS011;7560;51.364;12.384;2023-04-24T00:17:55;3.03;;;1.70;;
14933;SDS011;7560;51.364;12.384;2023-04-24T00:22:57;1.92;;;1.70;;
14933;SDS011;7560;51.364;12.384;2023-04-24T00:27:59;3.35;;;1.67;;
14933;SDS011;7560;51.364;12.384;2023-04-24T00:33:00;2.15;;;1.67;;
14933;SDS011;7560;51.364;12.384;2023-04-24T00:38:02;2.65;;;1.65;;
14933;SDS011;7560;51.364;12.384;2023-04-24T00:43:04;1.90;;;1.73;;
14933;SDS011;7560;51.364;12.384;2023-04-24T00:48:09;2.13;;;1.65;;
14933;SDS011;7560;51.364;12.384;2023-04-24T00:53:12;2.13;;;1.75;;
14933;SDS011;7560;51.364;12.384;2023-04-24T00:58:14;2.50;;;1.80;;
14933;SDS011;7560;51.364;12.384;2023-04-24T01:03:16;1.83;;;1.60;;
14933;SDS011;7560;51.364;12.384;2023-04-24T01:08:19;1.48;;;1.38;;
14933;SDS011;7560;51.364;12.384;2023-04-24T01:13:21;1.67;;;1.58;;
14933;SDS011;7560;51.364;12.384;2023-04-24T01:18:23;2.15;;;1.40;;
14933;SDS011;7560;51.364;12.384;2023-04-24T01:23:25;1.70;;;1.60;;
14933;SDS011;7560;51.364;12.384;2023-04-24T01:28:27;1.95;;;1.33;;
14933;SDS011;7560;51.364;12.384;2023-04-24T01:33:29;1.30;;;1.20;;
14933;SDS011;7560;51.364;12.384;2023-04-24T01:38:31;2.35;;;1.00;;
14933;SDS011;7560;51.364;12.384;2023-04-24T01:43:33;2.47;;;0.85;;
14933;SDS011;7560;51.364;12.384;2023-04-24T01:48:35;1.83;;;1.00;;
14933;SDS011;7560;51.364;12.384;2023-04-24T01:53:37;1.33;;;1.23;;
14933;SDS011;7560;51.364;12.384;2023-04-24T01:58:38;1.10;;;1.00;;
14933;SDS011;7560;51.364;12.384;2023-04-24T02:03:40;1.80;;;1.10;;
14933;SDS011;7560;51.364;12.384;2023-04-24T02:08:42;1.25;;;1.10;;
14933;SDS011;7560;51.364;12.384;2023-04-24T02:13:44;1.17;;;1.08;;
14933;SDS011;7560;51.364;12.384;2023-04-24T02:18:46;1.30;;;1.20;;
14933;SDS011;7560;51.364;12.384;2023-04-24T02:23:48;1.35;;;1.25;;
14933;SDS011;7560;51.364;12.384;2023-04-24T02:28:49;2.10;;;1.50;;
14933;SDS011;7560;51.364;12.384;2023-04-24T02:33:51;1.40;;;1.30;;
14933;SDS011;7560;51.364;12.384;2023-04-24T02:38:53;2.60;;;1.50;;
14933;SDS011;7560;51.364;12.384;2023-04-24T02:43:54;1.52;;;1.30;;
14933;SDS011;7560;51.364;12.384;2023-04-24T02:48:56;2.17;;;1.20;;
14933;SDS011;7560;51.364;12.384;2023-04-24T02:53:58;3.15;;;1.65;;
14933;SDS011;7560;51.364;12.384;2023-04-24T02:59:00;1.20;;;1.10;;
14933;SDS011;7560;51.364;12.384;2023-04-24T03:04:01;2.97;;;1.30;;
14933;SDS011;7560;51.364;12.384;2023-04-24T03:09:04;2.15;;;1.38;;
14933;SDS011;7560;51.364;12.384;2023-04-24T03:14:06;1.23;;;1.15;;
14933;SDS011;7560;51.364;12.384;2023-04-24T03:19:08;1.70;;;1.60;;
14933;SDS011;7560;51.364;12.384;2023-04-24T03:24:09;1.65;;;1.55;;
14933;SDS011;7560;51.364;12.384;2023-04-24T03:29:11;2.03;;;1.42;;
14933;SDS011;7560;51.364;12.384;2023-04-24T03:34:13;2.85;;;1.70;;
14933;SDS011;7560;51.364;12.384;2023-04-24T03:39:18;1.27;;;1.20;;
14933;SDS011;7560;51.364;12.384;2023-04-24T03:44:20;1.77;;;1.50;;
14933;SDS011;7560;51.364;12.384;2023-04-24T03:49:21;1.63;;;1.42;;
14933;SDS011;7560;51.364;12.384;2023-04-24T03:54:23;1.88;;;1.70;;
14933;SDS011;7560;51.364;12.384;2023-04-24T03:59:26;3.45;;;1.80;;
14933;SDS011;7560;51.364;12.384;2023-04-24T04:04:27;1.58;;;1.40;;
14933;SDS011;7560;51.364;12.384;2023-04-24T04:09:30;2.45;;;1.40;;
14933;SDS011;7560;51.364;12.384;2023-04-24T04:14:33;2.35;;;1.60;;
14933;SDS011;7560;51.364;12.384;2023-04-24T04:19:36;1.83;;;1.50;;
14933;SDS011;7560;51.364;12.384;2023-04-24T04:24:38;1.98;;;1.33;;
14933;SDS011;7560;51.364;12.384;2023-04-24T04:29:41;1.65;;;1.40;;
14933;SDS011;7560;51.364;12.384;2023-04-24T04:34:44;2.00;;;1.55;;
14933;SDS011;7560;51.364;12.384;2023-04-24T04:39:46;1.55;;;1.42;;
14933;SDS011;7560;51.364;12.384;2023-04-24T04:44:48;2.42;;;1.48;;
14933;SDS011;7560;51.364;12.384;2023-04-24T04:49:52;2.42;;;1.20;;
14933;SDS011;7560;51.364;12.384;2023-04-24T04:54:54;1.73;;;1.50;;
14933;SDS011;7560;51.364;12.384;2023-04-24T04:59:56;2.33;;;1.27;;
14933;SDS011;7560;51.364;12.384;2023-04-24T05:05:01;4.53;;;1.70;;
14933;SDS011;7560;51.364;12.384;2023-04-24T05:10:03;1.40;;;1.30;;
14933;SDS011;7560;51.364;12.384;2023-04-24T05:15:06;2.60;;;1.80;;
14933;SDS011;7560;51.364;12.384;2023-04-24T05:20:08;1.60;;;1.30;;
14933;SDS011;7560;51.364;12.384;2023-04-24T05:25:10;1.63;;;1.45;;
14933;SDS011;7560;51.364;12.384;2023-04-24T05:30:13;3.05;;;1.90;;
14933;SDS011;7560;51.364;12.384;2023-04-24T05:35:15;2.90;;;1.58;;
14933;SDS011;7560;51.364;12.384;2023-04-24T05:40:17;3.08;;;1.63;;
14933;SDS011;7560;51.364;12.384;2023-04-24T05:45:19;3.22;;;1.80;;
14933;SDS011;7560;51.364;12.384;2023-04-24T05:50:21;4.65;;;2.05;;
14933;SDS011;7560;51.364;12.384;2023-04-24T05:55:22;3.33;;;1.60;;
14933;SDS011;7560;51.364;12.384;2023-04-24T06:00:25;4.70;;;1.88;;
14933;SDS011;7560;51.364;12.384;2023-04-24T06:05:27;2.45;;;1.55;;
14933;SDS011;7560;51.364;12.384;2023-04-24T06:10:29;1.58;;;1.38;;
14933;SDS011;7560;51.364;12.384;2023-04-24T06:15:31;2.33;;;1.48;;
14933;SDS011;7560;51.364;12.384;2023-04-24T06:20:38;1.58;;;1.30;;
14933;SDS011;7560;51.364;12.384;2023-04-24T06:25:40;2.55;;;1.38;;
14933;SDS011;7560;51.364;12.384;2023-04-24T06:30:42;1.95;;;1.77;;
14933;SDS011;7560;51.364;12.384;2023-04-24T06:35:44;2.72;;;1.40;;
14933;SDS011;7560;51.364;12.384;2023-04-24T06:40:46;3.80;;;1.55;;
14933;SDS011;7560;51.364;12.384;2023-04-24T06:45:48;2.33;;;1.52;;
14933;SDS011;7560;51.364;12.384;2023-04-24T06:50:52;1.25;;;1.15;;
14933;SDS011;7560;51.364;12.384;2023-04-24T06:55:53;3.78;;;1.65;;
14933;SDS011;7560;51.364;12.384;2023-04-24T07:00:55;2.15;;;1.40;;
14933;SDS011;7560;51.364;12.384;2023-04-24T07:05:57;2.45;;;1.35;;
14933;SDS011;7560;51.364;12.384;2023-04-24T07:11:00;4.93;;;1.45;;
14933;SDS011;7560;51.364;12.384;2023-04-24T07:16:02;3.17;;;1.60;;
14933;SDS011;7560;51.364;12.384;2023-04-24T07:21:04;3.53;;;2.10;;
14933;SDS011;7560;51.364;12.384;2023-04-24T07:26:08;2.88;;;1.08;;
14933;SDS011;7560;51.364;12.384;2023-04-24T07:31:10;2.47;;;1.10;;
14933;SDS011;7560;51.364;12.384;2023-04-24T07:36:13;2.30;;;1.25;;
14933;SDS011;7560;51.364;12.384;2023-04-24T07:41:18;2.42;;;1.70;;
14933;SDS011;7560;51.364;12.384;2023-04-24T07:46:20;1.67;;;1.00;;
14933;SDS011;7560;51.364;12.384;2023-04-24T07:51:24;2.13;;;1.08;;
14933;SDS011;7560;51.364;12.384;2023-04-24T07:56:30;2.40;;;0.85;;
14933;SDS011;7560;51.364;12.384;2023-04-24T08:01:32;2.30;;;0.82;;
14933;SDS011;7560;51.364;12.384;2023-04-24T08:06:34;2.25;;;1.20;;
14933;SDS011;7560;51.364;12.384;2023-04-24T08:11:36;3.65;;;1.08;;
14933;SDS011;7560;51.364;12.384;2023-04-24T08:16:38;2.15;;;1.30;;
14933;SDS011;7560;51.364;12.384;2023-04-24T08:21:40;1.42;;;1.05;;
14933;SDS011;7560;51.364;12.384;2023-04-24T08:26:42;2.40;;;0.80;;
14933;SDS011;7560;51.364;12.384;2023-04-24T08:31:44;1.67;;;0.90;;
14933;SDS011;7560;51.364;12.384;2023-04-24T08:36:46;1.35;;;0.80;;
14933;SDS011;7560;51.364;12.384;2023-04-24T08:41:49;2.85;;;0.73;;
14933;SDS011;7560;51.364;12.384;2023-04-24T08:46:54;1.73;;;0.70;;
14933;SDS011;7560;51.364;12.384;2023-04-24T08:51:56;1.85;;;0.60;;
14933;SDS011;7560;51.364;12.384;2023-04-24T08:56:58;1.73;;;0.70;;
14933;SDS011;7560;51.364;12.384;2023-04-24T09:02:02;1.10;;;0.60;;
14933;SDS011;7560;51.364;12.384;2023-04-24T09:07:06;1.25;;;0.68;;
14933;SDS011;7560;51.364;12.384;2023-04-24T09:12:10;1.83;;;1.00;;
14933;SDS011;7560;51.364;12.384;2023-04-24T09:17:12;1.88;;;0.90;;
14933;SDS011;7560;51.364;12.384;2023-04-24T09:22:15;2.75;;;0.88;;
14933;SDS011;7560;51.364;12.384;2023-04-24T09:27:18;2.88;;;0.93;;
14933;SDS011;7560;51.364;12.384;2023-04-24T09:32:21;1.52;;;0.80;;
14933;SDS011;7560;51.364;12.384;2023-04-24T09:37:29;0.77;;;0.70;;
14933;SDS011;7560;51.364;12.384;2023-04-24T09:42:31;3.17;;;0.90;;
14933;SDS011;7560;51.364;12.384;2023-04-24T09:47:41;1.90;;;0.85;;
14933;SDS011;7560;51.364;12.384;2023-04-24T09:52:45;1.23;;;1.00;;
14933;SDS011;7560;51.364;12.384;2023-04-24T09:58:14;1.08;;;0.80;;
14933;SDS011;7560;51.364;12.384;2023-04-24T10:03:16;2.53;;;0.88;;
14933;SDS011;7560;51.364;12.384;2023-04-24T10:08:19;2.65;;;1.13;;
14933;SDS011;7560;51.364;12.384;2023-04-24T10:13:21;1.27;;;0.90;;
14933;SDS011;7560;51.364;12.384;2023-04-24T10:18:23;0.88;;;0.80;;
14933;SDS011;7560;51.364;12.384;2023-04-24T10:23:26;1.15;;;0.85;;
14933;SDS011;7560;51.364;12.384;2023-04-24T10:28:30;1.52;;;0.80;;
14933;SDS011;7560;51.364;12.384;2023-04-24T10:33:33;1.20;;;0.80;;
14933;SDS011;7560;51.364;12.384;2023-04-24T10:38:37;1.77;;;0.82;;
14933;SDS011;7560;51.364;12.384;2023-04-24T10:43:44;1.10;;;0.95;;
14933;SDS011;7560;51.364;12.384;2023-04-24T10:48:52;0.98;;;0.88;;
14933;SDS011;7560;51.364;12.384;2023-04-24T10:53:59;2.15;;;1.00;;
14933;SDS011;7560;51.364;12.384;2023-04-24T10:59:24;1.10;;;0.93;;
14933;SDS011;7560;51.364;12.384;2023-04-24T11:04:32;1.48;;;1.10;;
14933;SDS011;7560;51.364;12.384;2023-04-24T11:09:34;1.10;;;0.85;;
14933;SDS011;7560;51.364;12.384;2023-04-24T11:20:03;1.20;;;1.10;;
14933;SDS011;7560;51.364;12.384;2023-04-24T11:25:30;1.52;;;1.10;;
14933;SDS011;7560;51.364;12.384;2023-04-24T11:30:35;3.13;;;1.00;;
14933;SDS011;7560;51.364;12.384;2023-04-24T11:35:41;0.80;;;0.80;;
14933;SDS011;7560;51.364;12.384;2023-04-24T11:40:45;2.58;;;1.20;;
14933;SDS011;7560;51.364;12.384;2023-04-24T11:45:51;2.25;;;0.95;;
14933;SDS011;7560;51.364;12.384;2023-04-24T11:50:53;2.33;;;1.00;;
14933;SDS011;7560;51.364;12.384;2023-04-24T11:55:56;0.98;;;0.93;;
14933;SDS011;7560;51.364;12.384;2023-04-24T12:01:03;2.67;;;1.05;;
14933;SDS011;7560;51.364;12.384;2023-04-24T12:06:09;3.05;;;0.90;;
14933;SDS011;7560;51.364;12.384;2023-04-24T12:11:14;1.25;;;0.90;;
14933;SDS011;7560;51.364;12.384;2023-04-24T12:16:18;1.65;;;0.90;;
14933;SDS011;7560;51.364;12.384;2023-04-24T12:21:21;2.00;;;1.10;;
14933;SDS011;7560;51.364;12.384;2023-04-24T12:26:28;1.30;;;1.20;;
14933;SDS011;7560;51.364;12.384;2023-04-24T12:31:30;3.17;;;1.50;;
14933;SDS011;7560;51.364;12.384;2023-04-24T12:36:34;2.10;;;1.27;;
14933;SDS011;7560;51.364;12.384;2023-04-24T12:41:36;1.38;;;1.25;;
14933;SDS011;7560;51.364;12.384;2023-04-24T12:46:38;1.38;;;0.85;;
14933;SDS011;7560;51.364;12.384;2023-04-24T12:51:40;1.40;;;0.80;;
14933;SDS011;7560;51.364;12.384;2023-04-24T12:56:45;1.35;;;1.25;;
14933;SDS011;7560;51.364;12.384;2023-04-24T13:01:47;2.55;;;1.35;;
14933;SDS011;7560;51.364;12.384;2023-04-24T13:06:49;2.72;;;1.20;;
14933;SDS011;7560;51.364;12.384;2023-04-24T13:11:51;1.65;;;1.40;;
14933;SDS011;7560;51.364;12.384;2023-04-24T13:16:53;2.88;;;1.40;;
14933;SDS011;7560;51.364;12.384;2023-04-24T13:21:55;1.70;;;1.50;;
14933;SDS011;7560;51.364;12.384;2023-04-24T13:26:58;1.75;;;1.20;;
14933;SDS011;7560;51.364;12.384;2023-04-24T13:32:02;1.40;;;1.20;;
14933;SDS011;7560;51.364;12.384;2023-04-24T13:37:04;1.73;;;1.30;;
14933;SDS011;7560;51.364;12.384;2023-04-24T13:42:09;1.08;;;1.05;;
14933;SDS011;7560;51.364;12.384;2023-04-24T13:47:11;2.95;;;1.10;;
14933;SDS011;7560;51.364;12.384;2023-04-24T13:52:13;2.53;;;1.45;;
14933;SDS011;7560;51.364;12.384;2023-04-24T13:57:15;2.63;;;1.30;;
14933;SDS011;7560;51.364;12.384;2023-04-24T14:02:17;1.40;;;1.30;;
14933;SDS011;7560;51.364;12.384;2023-04-24T14:07:19;1.20;;;1.10;;
14933;SDS011;7560;51.364;12.384;2023-04-24T14:12:21;1.63;;;0.80;;
14933;SDS011;7560;51.364;12.384;2023-04-24T14:17:23;0.60;;;0.60;;
14933;SDS011;7560;51.364;12.384;2023-04-24T14:22:25;0.90;;;0.77;;
14933;SDS011;7560;51.364;12.384;2023-04-24T14:27:27;1.05;;;0.90;;
14933;SDS011;7560;51.364;12.384;2023-04-24T14:32:29;1.35;;;1.23;;
14933;SDS011;7560;51.364;12.384;2023-04-24T14:37:32;3.85;;;0.82;;
14933;SDS011;7560;51.364;12.384;2023-04-24T14:42:34;0.82;;;0.40;;
14933;SDS011;7560;51.364;12.384;2023-04-24T14:47:38;2.00;;;0.60;;
14933;SDS011;7560;51.364;12.384;2023-04-24T14:52:40;1.52;;;0.45;;
14933;SDS011;7560;51.364;12.384;2023-04-24T14:57:42;1.38;;;0.65;;
14933;SDS011;7560;51.364;12.384;2023-04-24T15:02:44;0.90;;;0.60;;
14933;SDS011;7560;51.364;12.384;2023-04-24T15:07:46;1.27;;;0.50;;
14933;SDS011;7560;51.364;12.384;2023-04-24T15:12:49;2.45;;;0.50;;
14933;SDS011;7560;51.364;12.384;2023-04-24T15:17:51;0.30;;;0.30;;
14933;SDS011;7560;51.364;12.384;2023-04-24T15:22:53;2.97;;;0.43;;
14933;SDS011;7560;51.364;12.384;2023-04-24T15:27:57;0.70;;;0.30;;
14933;SDS011;7560;51.364;12.384;2023-04-24T15:33:00;0.80;;;0.50;;
14933;SDS011;7560;51.364;12.384;2023-04-24T15:38:03;0.50;;;0.50;;
14933;SDS011;7560;51.364;12.384;2023-04-24T15:43:05;2.17;;;0.45;;
14933;SDS011;7560;51.364;12.384;2023-04-24T15:48:08;0.50;;;0.32;;
14933;SDS011;7560;51.364;12.384;2023-04-24T15:53:11;0.52;;;0.30;;
14933;SDS011;7560;51.364;12.384;2023-04-24T15:58:13;1.05;;;0.30;;
14933;SDS011;7560;51.364;12.384;2023-04-24T16:03:14;0.30;;;0.30;;
14933;SDS011;7560;51.364;12.384;2023-04-24T16:08:16;0.28;;;0.28;;
14933;SDS011;7560;51.364;12.384;2023-04-24T16:13:18;0.82;;;0.50;;
14933;SDS011;7560;51.364;12.384;2023-04-24T16:18:20;0.52;;;0.30;;
14933;SDS011;7560;51.364;12.384;2023-04-24T16:23:24;0.35;;;0.35;;
14933;SDS011;7560;51.364;12.384;2023-04-24T16:28:28;0.30;;;0.30;;
14933;SDS011;7560;51.364;12.384;2023-04-24T16:33:37;0.40;;;0.40;;
14933;SDS011;7560;51.364;12.384;2023-04-24T16:38:40;1.17;;;0.40;;
14933;SDS011;7560;51.364;12.384;2023-04-24T16:43:42;0.50;;;0.50;;
14933;SDS011;7560;51.364;12.384;2023-04-24T16:48:44;0.40;;;0.40;;
14933;SDS011;7560;51.364;12.384;2023-04-24T16:53:46;0.65;;;0.60;;
14933;SDS011;7560;51.364;12.384;2023-04-24T16:58:48;0.90;;;0.68;;
14933;SDS011;7560;51.364;12.384;2023-04-24T17:03:50;0.47;;;0.47;;
14933;SDS011;7560;51.364;12.384;2023-04-24T17:08:53;1.20;;;0.40;;
14933;SDS011;7560;51.364;12.384;2023-04-24T17:13:55;0.60;;;0.60;;
14933;SDS011;7560;51.364;12.384;2023-04-24T17:18:56;0.60;;;0.60;;
14933;SDS011;7560;51.364;12.384;2023-04-24T17:23:58;0.93;;;0.70;;
14933;SDS011;7560;51.364;12.384;2023-04-24T17:29:00;0.60;;;0.60;;
14933;SDS011;7560;51.364;12.384;2023-04-24T17:34:02;0.90;;;0.75;;
14933;SDS011;7560;51.364;12.384;2023-04-24T17:39:04;0.70;;;0.70;;
14933;SDS011;7560;51.364;12.384;2023-04-24T17:44:06;0.60;;;0.60;;
14933;SDS011;7560;51.364;12.384;2023-04-24T17:49:08;0.60;;;0.60;;
14933;SDS011;7560;51.364;12.384;2023-04-24T17:54:10;0.80;;;0.80;;
14933;SDS011;7560;51.364;12.384;2023-04-24T17:59:11;1.52;;;0.80;;
14933;SDS011;7560;51.364;12.384;2023-04-24T18:04:16;0.90;;;0.90;;
14933;SDS011;7560;51.364;12.384;2023-04-24T18:09:18;1.08;;;1.02;;
14933;SDS011;7560;51.364;12.384;2023-04-24T18:14:21;0.80;;;0.77;;
14933;SDS011;7560;51.364;12.384;2023-04-24T18:19:24;1.95;;;1.10;;
14933;SDS011;7560;51.364;12.384;2023-04-24T18:24:25;0.80;;;0.80;;
14933;SDS011;7560;51.364;12.384;2023-04-24T18:29:27;1.02;;;0.90;;
14933;SDS011;7560;51.364;12.384;2023-04-24T18:34:29;0.98;;;0.88;;
14933;SDS011;7560;51.364;12.384;2023-04-24T18:39:31;1.73;;;1.10;;
14933;SDS011;7560;51.364;12.384;2023-04-24T18:44:33;1.27;;;1.15;;
14933;SDS011;7560;51.364;12.384;2023-04-24T18:49:35;1.20;;;1.10;;
14933;SDS011;7560;51.364;12.384;2023-04-24T18:54:37;2.20;;;1.45;;
14933;SDS011;7560;51.364;12.384;2023-04-24T18:59:39;1.20;;;1.10;;
14933;SDS011;7560;51.364;12.384;2023-04-24T19:04:41;2.03;;;1.63;;
14933;SDS011;7560;51.364;12.384;2023-04-24T19:09:42;3.17;;;1.75;;
14933;SDS011;7560;51.364;12.384;2023-04-24T19:14:44;3.40;;;2.58;;
14933;SDS011;7560;51.364;12.384;2023-04-24T19:19:46;3.53;;;2.45;;
14933;SDS011;7560;51.364;12.384;2023-04-24T19:24:48;4.65;;;2.60;;
14933;SDS011;7560;51.364;12.384;2023-04-24T19:29:49;2.80;;;2.33;;
14933;SDS011;7560;51.364;12.384;2023-04-24T19:34:52;4.50;;;2.90;;
14933;SDS011;7560;51.364;12.384;2023-04-24T19:39:54;2.75;;;2.42;;
14933;SDS011;7560;51.364;12.384;2023-04-24T19:44:55;4.00;;;2.47;;
14933;SDS011;7560;51.364;12.384;2023-04-24T19:49:57;3.33;;;2.60;;
14933;SDS011;7560;51.364;12.384;2023-04-24T19:55:00;3.97;;;3.13;;
14933;SDS011;7560;51.364;12.384;2023-04-24T20:00:02;4.30;;;2.95;;
14933;SDS011;7560;51.364;12.384;2023-04-24T20:05:04;3.83;;;3.10;;
14933;SDS011;7560;51.364;12.384;2023-04-24T20:10:07;3.67;;;2.85;;
14933;SDS011;7560;51.364;12.384;2023-04-24T20:15:09;4.45;;;3.13;;
14933;SDS011;7560;51.364;12.384;2023-04-24T20:20:13;3.72;;;3.08;;
14933;SDS011;7560;51.364;12.384;2023-04-24T20:25:15;4.72;;;3.17;;
14933;SDS011;7560;51.364;12.384;2023-04-24T20:30:17;6.47;;;3.25;;
14933;SDS011;7560;51.364;12.384;2023-04-24T20:35:19;5.22;;;3.72;;
14933;SDS011;7560;51.364;12.384;2023-04-24T20:40:21;6.80;;;3.10;;
14933;SDS011;7560;51.364;12.384;2023-04-24T20:45:24;5.38;;;3.30;;
14933;SDS011;7560;51.364;12.384;2023-04-24T20:50:26;4.13;;;3.10;;
14933;SDS011;7560;51.364;12.384;2023-04-24T20:55:28;4.55;;;3.25;;
14933;SDS011;7560;51.364;12.384;2023-04-24T21:00:30;4.50;;;3.00;;
14933;SDS011;7560;51.364;12.384;2023-04-24T21:05:32;5.72;;;3.38;;
14933;SDS011;7560;51.364;12.384;2023-04-24T21:10:34;4.50;;;3.08;;
14933;SDS011;7560;51.364;12.384;2023-04-24T21:15:35;3.95;;;3.25;;
14933;SDS011;7560;51.364;12.384;2023-04-24T21:20:37;7.00;;;3.40;;
14933;SDS011;7560;51.364;12.384;2023-04-24T21:25:40;4.30;;;3.28;;
14933;SDS011;7560;51.364;12.384;2023-04-24T21:30:41;4.88;;;3.33;;
14933;SDS011;7560;51.364;12.384;2023-04-24T21:35:45;5.28;;;3.50;;
14933;SDS011;7560;51.364;12.384;2023-04-24T21:40:47;5.10;;;3.22;;
14933;SDS011;7560;51.364;12.384;2023-04-24T21:45:50;4.07;;;3.13;;
14933;SDS011;7560;51.364;12.384;2023-04-24T21:50:54;5.78;;;3.25;;
14933;SDS011;7560;51.364;12.384;2023-04-24T21:55:56;4.32;;;3.10;;
14933;SDS011;7560;51.364;12.384;2023-04-24T22:00:59;5.05;;;2.85;;
14933;SDS011;7560;51.364;12.384;2023-04-24T22:06:01;3.55;;;2.78;;
14933;SDS011;7560;51.364;12.384;2023-04-24T22:11:03;3.67;;;3.08;;
14933;SDS011;7560;51.364;12.384;2023-04-24T22:16:16;4.88;;;2.85;;
14933;SDS011;7560;51.364;12.384;2023-04-24T22:21:19;3.50;;;3.20;;
14933;SDS011;7560;51.364;12.384;2023-04-24T22:26:22;9.13;;;3.10;;
14933;SDS011;7560;51.364;12.384;2023-04-24T22:31:24;6.75;;;3.22;;
14933;SDS011;7560;51.364;12.384;2023-04-24T22:36:26;4.80;;;3.25;;
14933;SDS011;7560;51.364;12.384;2023-04-24T22:41:29;4.40;;;3.30;;
14933;SDS011;7560;51.364;12.384;2023-04-24T22:46:31;3.72;;;3.15;;
14933;SDS011;7560;51.364;12.384;2023-04-24T22:51:32;3.70;;;3.03;;
14933;SDS011;7560;51.364;12.384;2023-04-24T22:56:36;4.75;;;3.30;;
14933;SDS011;7560;51.364;12.384;2023-04-24T23:01:38;5.65;;;3.40;;
14933;SDS011;7560;51.364;12.384;2023-04-24T23:06:39;4.63;;;3.40;;
14933;SDS011;7560;51.364;12.384;2023-04-24T23:11:41;4.50;;;3.67;;
14933;SDS011;7560;51.364;12.384;2023-04-24T23:16:43;4.47;;;3.30;;
14933;SDS011;7560;51.364;12.384;2023-04-24T23:21:46;5.75;;;4.28;;
14933;SDS011;7560;51.364;12.384;2023-04-24T23:26:49;4.82;;;3.45;;
14933;SDS011;7560;51.364;12.384;2023-04-24T23:31:54;5.22;;;4.07;;
14933;SDS011;7560;51.364;12.384;2023-04-24T23:36:55;5.90;;;3.88;;
14933;SDS011;7560;51.364;12.384;2023-04-24T23:41:57;6.68;;;4.45;;
14933;SDS011;7560;51.364;12.384;2023-04-24T23:47:02;6.68;;;4.72;;
14933;SDS011;7560;51.364;12.384;2023-04-24T23:52:04;6.75;;;4.00;;
14933;SDS011;7560;51.364;12.384;2023-04-24T23:57:06;5.40;;;4.00;;
